sensor_id;sensor_type;location;lat;lon;timestamp;P1;durP1;ratioP1;P2;durP2;ratioP2
77304;SDS011;66364;52.622;7.746;2023-03-07T00:01:31;24.15;;;17.70;;
77304;SDS011;66364;52.622;7.746;2023-03-07T00:03:30;22.35;;;16.55;;
77304;SDS011;66364;52.622;7.746;2023-03-07T00:05:32;25.20;;;20.25;;
77304;SDS011;66364;52.622;7.746;2023-03-07T00:07:33;27.58;;;19.73;;
77304;SDS011;66364;52.622;7.746;2023-03-07T00:09:33;27.10;;;18.67;;
77304;SDS011;66364;52.622;7.746;2023-03-07T00:11:34;29.40;;;20.97;;
77304;SDS011;66364;52.622;7.746;2023-03-07T00:13:37;26.40;;;17.77;;
77304;SDS011;66364;52.622;7.746;2023-03-07T00:15:38;31.05;;;20.68;;
77304;SDS011;66364;52.622;7.746;2023-03-07T00:17:38;27.93;;;19.12;;
77304;SDS011;66364;52.622;7.746;2023-03-07T00:19:42;24.67;;;17.90;;
77304;SDS011;66364;52.622;7.746;2023-03-07T00:21:52;25.30;;;18.32;;
77304;SDS011;66364;52.622;7.746;2023-03-07T00:24:02;25.92;;;18.25;;
77304;SDS011;66364;52.622;7.746;2023-03-07T00:26:04;24.87;;;18.05;;
77304;SDS011;66364;52.622;7.746;2023-03-07T00:28:06;29.15;;;17.92;;
77304;SDS011;66364;52.622;7.746;2023-03-07T00:30:09;24.83;;;17.70;;
77304;SDS011;66364;52.622;7.746;2023-03-07T00:32:10;23.30;;;16.90;;
77304;SDS011;66364;52.622;7.746;2023-03-07T00:34:10;25.30;;;17.23;;
77304;SDS011;66364;52.622;7.746;2023-03-07T00:36:16;25.80;;;19.13;;
77304;SDS011;66364;52.622;7.746;2023-03-07T00:38:21;25.25;;;18.45;;
77304;SDS011;66364;52.622;7.746;2023-03-07T00:40:37;23.22;;;18.23;;
77304;SDS011;66364;52.622;7.746;2023-03-07T00:42:38;24.85;;;17.57;;
77304;SDS011;66364;52.622;7.746;2023-03-07T00:47:05;22.48;;;16.15;;
77304;SDS011;66364;52.622;7.746;2023-03-07T00:49:06;18.55;;;14.03;;
77304;SDS011;66364;52.622;7.746;2023-03-07T00:51:07;20.03;;;15.50;;
77304;SDS011;66364;52.622;7.746;2023-03-07T00:53:10;21.82;;;15.68;;
77304;SDS011;66364;52.622;7.746;2023-03-07T00:55:11;21.70;;;16.60;;
77304;SDS011;66364;52.622;7.746;2023-03-07T00:57:20;19.20;;;15.53;;
77304;SDS011;66364;52.622;7.746;2023-03-07T00:59:21;21.80;;;14.98;;
77304;SDS011;66364;52.622;7.746;2023-03-07T01:01:23;18.80;;;15.27;;
77304;SDS011;66364;52.622;7.746;2023-03-07T01:03:26;16.07;;;13.43;;
77304;SDS011;66364;52.622;7.746;2023-03-07T01:05:29;20.65;;;14.45;;
77304;SDS011;66364;52.622;7.746;2023-03-07T01:10:05;16.20;;;13.03;;
77304;SDS011;66364;52.622;7.746;2023-03-07T01:12:07;19.10;;;15.23;;
77304;SDS011;66364;52.622;7.746;2023-03-07T01:14:08;18.02;;;14.07;;
77304;SDS011;66364;52.622;7.746;2023-03-07T01:16:12;19.62;;;14.15;;
77304;SDS011;66364;52.622;7.746;2023-03-07T01:18:17;16.85;;;13.55;;
77304;SDS011;66364;52.622;7.746;2023-03-07T01:20:18;20.13;;;14.03;;
77304;SDS011;66364;52.622;7.746;2023-03-07T01:22:19;19.52;;;15.03;;
77304;SDS011;66364;52.622;7.746;2023-03-07T01:24:19;15.80;;;13.50;;
77304;SDS011;66364;52.622;7.746;2023-03-07T01:26:21;15.80;;;11.70;;
77304;SDS011;66364;52.622;7.746;2023-03-07T01:28:23;17.40;;;13.40;;
77304;SDS011;66364;52.622;7.746;2023-03-07T01:30:24;17.23;;;13.33;;
77304;SDS011;66364;52.622;7.746;2023-03-07T01:32:37;16.73;;;11.90;;
77304;SDS011;66364;52.622;7.746;2023-03-07T01:34:38;15.98;;;13.08;;
77304;SDS011;66364;52.622;7.746;2023-03-07T01:39:12;14.50;;;12.82;;
77304;SDS011;66364;52.622;7.746;2023-03-07T01:41:21;17.75;;;13.43;;
77304;SDS011;66364;52.622;7.746;2023-03-07T01:43:26;14.65;;;13.13;;
77304;SDS011;66364;52.622;7.746;2023-03-07T01:47:36;17.80;;;14.30;;
77304;SDS011;66364;52.622;7.746;2023-03-07T01:49:37;17.27;;;13.57;;
77304;SDS011;66364;52.622;7.746;2023-03-07T01:51:42;17.45;;;15.25;;
77304;SDS011;66364;52.622;7.746;2023-03-07T01:53:46;19.55;;;14.70;;
77304;SDS011;66364;52.622;7.746;2023-03-07T01:55:49;18.23;;;15.93;;
77304;SDS011;66364;52.622;7.746;2023-03-07T01:57:50;16.53;;;12.97;;
77304;SDS011;66364;52.622;7.746;2023-03-07T01:59:53;17.62;;;15.55;;
77304;SDS011;66364;52.622;7.746;2023-03-07T02:01:56;18.07;;;14.23;;
77304;SDS011;66364;52.622;7.746;2023-03-07T02:06:23;14.63;;;11.80;;
77304;SDS011;66364;52.622;7.746;2023-03-07T02:10:56;15.93;;;13.18;;
77304;SDS011;66364;52.622;7.746;2023-03-07T02:12:56;14.20;;;11.90;;
77304;SDS011;66364;52.622;7.746;2023-03-07T02:14:57;12.80;;;11.50;;
77304;SDS011;66364;52.622;7.746;2023-03-07T02:16:58;15.63;;;13.27;;
77304;SDS011;66364;52.622;7.746;2023-03-07T02:18:59;13.73;;;10.10;;
77304;SDS011;66364;52.622;7.746;2023-03-07T02:23:19;13.80;;;10.65;;
77304;SDS011;66364;52.622;7.746;2023-03-07T02:25:41;11.20;;;9.65;;
77304;SDS011;66364;52.622;7.746;2023-03-07T02:27:59;10.18;;;8.18;;
77304;SDS011;66364;52.622;7.746;2023-03-07T02:30:01;8.88;;;8.00;;
77304;SDS011;66364;52.622;7.746;2023-03-07T02:32:03;7.50;;;6.40;;
77304;SDS011;66364;52.622;7.746;2023-03-07T02:34:24;7.17;;;5.62;;
77304;SDS011;66364;52.622;7.746;2023-03-07T02:36:45;9.45;;;4.92;;
77304;SDS011;66364;52.622;7.746;2023-03-07T02:38:53;5.05;;;4.55;;
77304;SDS011;66364;52.622;7.746;2023-03-07T02:40:56;5.03;;;3.72;;
77304;SDS011;66364;52.622;7.746;2023-03-07T02:42:58;3.92;;;3.50;;
77304;SDS011;66364;52.622;7.746;2023-03-07T02:45:03;4.05;;;3.65;;
77304;SDS011;66364;52.622;7.746;2023-03-07T02:47:06;5.08;;;4.00;;
77304;SDS011;66364;52.622;7.746;2023-03-07T02:49:07;3.70;;;3.37;;
77304;SDS011;66364;52.622;7.746;2023-03-07T02:51:07;5.10;;;2.90;;
77304;SDS011;66364;52.622;7.746;2023-03-07T02:53:08;4.07;;;3.33;;
77304;SDS011;66364;52.622;7.746;2023-03-07T02:55:09;3.57;;;3.07;;
77304;SDS011;66364;52.622;7.746;2023-03-07T02:57:15;6.40;;;2.83;;
77304;SDS011;66364;52.622;7.746;2023-03-07T02:59:29;2.72;;;2.52;;
77304;SDS011;66364;52.622;7.746;2023-03-07T03:01:29;2.33;;;2.05;;
77304;SDS011;66364;52.622;7.746;2023-03-07T03:03:31;2.27;;;1.70;;
77304;SDS011;66364;52.622;7.746;2023-03-07T03:05:31;2.87;;;2.10;;
77304;SDS011;66364;52.622;7.746;2023-03-07T03:07:32;1.57;;;1.47;;
77304;SDS011;66364;52.622;7.746;2023-03-07T03:09:35;2.70;;;1.75;;
77304;SDS011;66364;52.622;7.746;2023-03-07T03:11:36;2.27;;;1.25;;
77304;SDS011;66364;52.622;7.746;2023-03-07T03:13:36;1.53;;;1.43;;
77304;SDS011;66364;52.622;7.746;2023-03-07T03:15:37;3.13;;;1.60;;
77304;SDS011;66364;52.622;7.746;2023-03-07T03:17:38;1.67;;;1.40;;
77304;SDS011;66364;52.622;7.746;2023-03-07T03:19:39;1.85;;;1.17;;
77304;SDS011;66364;52.622;7.746;2023-03-07T03:21:49;2.20;;;1.50;;
77304;SDS011;66364;52.622;7.746;2023-03-07T03:23:50;3.08;;;1.45;;
77304;SDS011;66364;52.622;7.746;2023-03-07T03:25:57;1.27;;;1.20;;
77304;SDS011;66364;52.622;7.746;2023-03-07T03:27:58;1.72;;;1.50;;
77304;SDS011;66364;52.622;7.746;2023-03-07T03:29:59;2.80;;;1.43;;
77304;SDS011;66364;52.622;7.746;2023-03-07T03:32:00;2.00;;;1.63;;
77304;SDS011;66364;52.622;7.746;2023-03-07T03:34:01;3.07;;;1.53;;
77304;SDS011;66364;52.622;7.746;2023-03-07T03:36:08;2.53;;;1.43;;
77304;SDS011;66364;52.622;7.746;2023-03-07T03:38:11;1.65;;;1.30;;
77304;SDS011;66364;52.622;7.746;2023-03-07T03:40:12;1.57;;;1.27;;
77304;SDS011;66364;52.622;7.746;2023-03-07T03:42:13;5.67;;;2.00;;
77304;SDS011;66364;52.622;7.746;2023-03-07T03:44:13;2.50;;;1.53;;
77304;SDS011;66364;52.622;7.746;2023-03-07T03:46:14;4.50;;;2.10;;
77304;SDS011;66364;52.622;7.746;2023-03-07T03:48:27;2.90;;;1.73;;
77304;SDS011;66364;52.622;7.746;2023-03-07T03:50:28;3.80;;;2.45;;
77304;SDS011;66364;52.622;7.746;2023-03-07T03:52:29;4.83;;;2.33;;
77304;SDS011;66364;52.622;7.746;2023-03-07T03:54:30;2.80;;;2.33;;
77304;SDS011;66364;52.622;7.746;2023-03-07T03:56:31;2.93;;;2.30;;
77304;SDS011;66364;52.622;7.746;2023-03-07T03:58:31;7.70;;;3.63;;
77304;SDS011;66364;52.622;7.746;2023-03-07T04:00:33;2.60;;;2.02;;
77304;SDS011;66364;52.622;7.746;2023-03-07T04:02:33;2.00;;;1.67;;
77304;SDS011;66364;52.622;7.746;2023-03-07T04:04:34;3.33;;;2.07;;
77304;SDS011;66364;52.622;7.746;2023-03-07T04:06:35;2.33;;;2.13;;
77304;SDS011;66364;52.622;7.746;2023-03-07T04:08:36;4.20;;;2.40;;
77304;SDS011;66364;52.622;7.746;2023-03-07T04:10:37;2.92;;;1.92;;
77304;SDS011;66364;52.622;7.746;2023-03-07T04:14:43;3.08;;;1.90;;
77304;SDS011;66364;52.622;7.746;2023-03-07T04:16:43;6.13;;;3.27;;
77304;SDS011;66364;52.622;7.746;2023-03-07T04:20:54;3.90;;;1.72;;
77304;SDS011;66364;52.622;7.746;2023-03-07T04:22:55;5.12;;;2.37;;
77304;SDS011;66364;52.622;7.746;2023-03-07T04:24:55;5.97;;;2.20;;
77304;SDS011;66364;52.622;7.746;2023-03-07T04:26:56;6.27;;;2.30;;
77304;SDS011;66364;52.622;7.746;2023-03-07T04:28:57;5.40;;;2.17;;
77304;SDS011;66364;52.622;7.746;2023-03-07T04:30:58;5.50;;;1.75;;
77304;SDS011;66364;52.622;7.746;2023-03-07T04:33:04;6.97;;;1.77;;
77304;SDS011;66364;52.622;7.746;2023-03-07T04:35:05;4.15;;;2.10;;
77304;SDS011;66364;52.622;7.746;2023-03-07T04:37:06;3.12;;;1.80;;
77304;SDS011;66364;52.622;7.746;2023-03-07T04:39:07;7.10;;;1.77;;
77304;SDS011;66364;52.622;7.746;2023-03-07T04:41:22;4.90;;;2.33;;
77304;SDS011;66364;52.622;7.746;2023-03-07T04:43:24;4.72;;;1.75;;
77304;SDS011;66364;52.622;7.746;2023-03-07T04:45:25;2.30;;;1.50;;
77304;SDS011;66364;52.622;7.746;2023-03-07T04:47:25;5.37;;;1.80;;
77304;SDS011;66364;52.622;7.746;2023-03-07T04:49:26;3.50;;;1.87;;
77304;SDS011;66364;52.622;7.746;2023-03-07T04:51:27;3.60;;;1.83;;
77304;SDS011;66364;52.622;7.746;2023-03-07T04:53:27;3.60;;;1.47;;
77304;SDS011;66364;52.622;7.746;2023-03-07T04:55:31;8.30;;;1.70;;
77304;SDS011;66364;52.622;7.746;2023-03-07T04:57:32;2.27;;;1.20;;
77304;SDS011;66364;52.622;7.746;2023-03-07T04:59:32;6.03;;;1.60;;
77304;SDS011;66364;52.622;7.746;2023-03-07T05:01:33;1.87;;;1.30;;
77304;SDS011;66364;52.622;7.746;2023-03-07T05:03:34;9.83;;;3.07;;
77304;SDS011;66364;52.622;7.746;2023-03-07T05:05:35;6.30;;;1.45;;
77304;SDS011;66364;52.622;7.746;2023-03-07T05:07:42;9.08;;;1.65;;
77304;SDS011;66364;52.622;7.746;2023-03-07T05:09:43;7.22;;;1.80;;
77304;SDS011;66364;52.622;7.746;2023-03-07T05:11:44;6.97;;;3.67;;
77304;SDS011;66364;52.622;7.746;2023-03-07T05:13:44;3.07;;;1.77;;
77304;SDS011;66364;52.622;7.746;2023-03-07T05:15:49;6.10;;;1.70;;
77304;SDS011;66364;52.622;7.746;2023-03-07T05:17:51;3.05;;;1.47;;
77304;SDS011;66364;52.622;7.746;2023-03-07T05:19:52;5.47;;;2.00;;
77304;SDS011;66364;52.622;7.746;2023-03-07T05:21:53;7.00;;;2.00;;
77304;SDS011;66364;52.622;7.746;2023-03-07T05:28:18;3.17;;;1.60;;
77304;SDS011;66364;52.622;7.746;2023-03-07T05:30:19;2.83;;;1.33;;
77304;SDS011;66364;52.622;7.746;2023-03-07T05:32:19;8.03;;;1.37;;
77304;SDS011;66364;52.622;7.746;2023-03-07T05:34:20;4.70;;;1.73;;
77304;SDS011;66364;52.622;7.746;2023-03-07T05:36:30;5.10;;;1.87;;
77304;SDS011;66364;52.622;7.746;2023-03-07T05:38:58;9.75;;;1.67;;
77304;SDS011;66364;52.622;7.746;2023-03-07T05:40:59;7.40;;;1.70;;
77304;SDS011;66364;52.622;7.746;2023-03-07T05:43:00;4.53;;;1.60;;
77304;SDS011;66364;52.622;7.746;2023-03-07T05:45:01;5.10;;;1.30;;
77304;SDS011;66364;52.622;7.746;2023-03-07T05:47:02;8.08;;;2.65;;
77304;SDS011;66364;52.622;7.746;2023-03-07T05:49:03;3.57;;;1.63;;
77304;SDS011;66364;52.622;7.746;2023-03-07T05:51:04;5.80;;;1.60;;
77304;SDS011;66364;52.622;7.746;2023-03-07T05:53:05;4.23;;;1.60;;
77304;SDS011;66364;52.622;7.746;2023-03-07T05:55:06;5.70;;;1.93;;
77304;SDS011;66364;52.622;7.746;2023-03-07T05:57:07;8.28;;;1.85;;
77304;SDS011;66364;52.622;7.746;2023-03-07T05:59:08;3.37;;;2.53;;
77304;SDS011;66364;52.622;7.746;2023-03-07T06:01:09;3.93;;;2.00;;
77304;SDS011;66364;52.622;7.746;2023-03-07T06:03:10;7.13;;;2.03;;
77304;SDS011;66364;52.622;7.746;2023-03-07T06:05:10;10.17;;;2.77;;
77304;SDS011;66364;52.622;7.746;2023-03-07T06:07:11;5.50;;;2.00;;
77304;SDS011;66364;52.622;7.746;2023-03-07T06:09:12;8.13;;;2.67;;
77304;SDS011;66364;52.622;7.746;2023-03-07T06:13:33;6.75;;;2.60;;
77304;SDS011;66364;52.622;7.746;2023-03-07T06:15:33;5.27;;;2.13;;
77304;SDS011;66364;52.622;7.746;2023-03-07T06:19:55;6.15;;;2.15;;
77304;SDS011;66364;52.622;7.746;2023-03-07T06:21:56;3.87;;;2.30;;
77304;SDS011;66364;52.622;7.746;2023-03-07T06:23:57;5.10;;;1.92;;
77304;SDS011;66364;52.622;7.746;2023-03-07T06:25:58;7.60;;;2.40;;
77304;SDS011;66364;52.622;7.746;2023-03-07T06:28:01;8.75;;;2.25;;
77304;SDS011;66364;52.622;7.746;2023-03-07T06:30:02;6.50;;;2.00;;
77304;SDS011;66364;52.622;7.746;2023-03-07T06:32:05;6.05;;;2.27;;
77304;SDS011;66364;52.622;7.746;2023-03-07T06:34:05;4.95;;;1.62;;
77304;SDS011;66364;52.622;7.746;2023-03-07T06:36:07;12.50;;;2.90;;
77304;SDS011;66364;52.622;7.746;2023-03-07T06:38:10;2.40;;;1.32;;
77304;SDS011;66364;52.622;7.746;2023-03-07T06:40:12;4.97;;;1.52;;
77304;SDS011;66364;52.622;7.746;2023-03-07T06:42:13;11.17;;;2.20;;
77304;SDS011;66364;52.622;7.746;2023-03-07T06:44:14;5.10;;;1.75;;
77304;SDS011;66364;52.622;7.746;2023-03-07T06:48:52;3.67;;;2.20;;
77304;SDS011;66364;52.622;7.746;2023-03-07T06:50:52;4.47;;;2.77;;
77304;SDS011;66364;52.622;7.746;2023-03-07T06:52:53;8.90;;;2.00;;
77304;SDS011;66364;52.622;7.746;2023-03-07T06:57:14;7.83;;;1.87;;
77304;SDS011;66364;52.622;7.746;2023-03-07T06:59:21;2.87;;;1.70;;
77304;SDS011;66364;52.622;7.746;2023-03-07T07:01:22;5.85;;;1.75;;
77304;SDS011;66364;52.622;7.746;2023-03-07T07:03:23;5.13;;;1.70;;
77304;SDS011;66364;52.622;7.746;2023-03-07T07:05:24;12.80;;;3.47;;
77304;SDS011;66364;52.622;7.746;2023-03-07T07:07:25;4.08;;;1.70;;
77304;SDS011;66364;52.622;7.746;2023-03-07T07:09:25;4.57;;;2.23;;
77304;SDS011;66364;52.622;7.746;2023-03-07T07:11:27;1.50;;;1.10;;
77304;SDS011;66364;52.622;7.746;2023-03-07T07:13:28;4.55;;;1.40;;
77304;SDS011;66364;52.622;7.746;2023-03-07T07:15:28;8.23;;;2.03;;
77304;SDS011;66364;52.622;7.746;2023-03-07T07:17:42;6.60;;;1.70;;
77304;SDS011;66364;52.622;7.746;2023-03-07T07:19:55;4.35;;;2.40;;
77304;SDS011;66364;52.622;7.746;2023-03-07T07:21:56;4.47;;;1.62;;
77304;SDS011;66364;52.622;7.746;2023-03-07T07:23:57;8.35;;;2.00;;
77304;SDS011;66364;52.622;7.746;2023-03-07T07:25:58;6.70;;;1.50;;
77304;SDS011;66364;52.622;7.746;2023-03-07T07:27:59;3.67;;;1.30;;
77304;SDS011;66364;52.622;7.746;2023-03-07T07:30:00;4.10;;;2.00;;
77304;SDS011;66364;52.622;7.746;2023-03-07T07:32:01;4.20;;;1.63;;
77304;SDS011;66364;52.622;7.746;2023-03-07T07:34:02;5.97;;;1.20;;
77304;SDS011;66364;52.622;7.746;2023-03-07T07:36:03;7.47;;;1.50;;
77304;SDS011;66364;52.622;7.746;2023-03-07T07:38:05;4.62;;;1.30;;
77304;SDS011;66364;52.622;7.746;2023-03-07T07:40:12;5.80;;;1.53;;
77304;SDS011;66364;52.622;7.746;2023-03-07T07:42:13;4.05;;;1.50;;
77304;SDS011;66364;52.622;7.746;2023-03-07T07:44:13;5.60;;;1.70;;
77304;SDS011;66364;52.622;7.746;2023-03-07T07:46:14;5.07;;;2.30;;
77304;SDS011;66364;52.622;7.746;2023-03-07T07:48:15;3.05;;;1.52;;
77304;SDS011;66364;52.622;7.746;2023-03-07T07:50:16;5.27;;;1.23;;
77304;SDS011;66364;52.622;7.746;2023-03-07T07:52:18;6.87;;;1.27;;
77304;SDS011;66364;52.622;7.746;2023-03-07T07:54:18;6.93;;;1.23;;
77304;SDS011;66364;52.622;7.746;2023-03-07T07:56:19;5.87;;;1.40;;
77304;SDS011;66364;52.622;7.746;2023-03-07T07:58:20;2.70;;;1.20;;
77304;SDS011;66364;52.622;7.746;2023-03-07T08:00:20;2.40;;;0.90;;
77304;SDS011;66364;52.622;7.746;2023-03-07T08:02:27;6.37;;;1.40;;
77304;SDS011;66364;52.622;7.746;2023-03-07T08:04:28;2.15;;;1.27;;
77304;SDS011;66364;52.622;7.746;2023-03-07T08:06:29;2.90;;;1.17;;
77304;SDS011;66364;52.622;7.746;2023-03-07T08:08:51;6.22;;;1.37;;
77304;SDS011;66364;52.622;7.746;2023-03-07T08:10:53;5.87;;;1.70;;
77304;SDS011;66364;52.622;7.746;2023-03-07T08:12:54;9.37;;;2.00;;
77304;SDS011;66364;52.622;7.746;2023-03-07T08:14:54;4.90;;;1.20;;
77304;SDS011;66364;52.622;7.746;2023-03-07T08:16:55;5.67;;;2.93;;
77304;SDS011;66364;52.622;7.746;2023-03-07T08:18:56;3.23;;;1.20;;
77304;SDS011;66364;52.622;7.746;2023-03-07T08:20:58;5.17;;;1.20;;
77304;SDS011;66364;52.622;7.746;2023-03-07T08:22:59;3.40;;;1.22;;
77304;SDS011;66364;52.622;7.746;2023-03-07T08:25:00;6.00;;;1.63;;
77304;SDS011;66364;52.622;7.746;2023-03-07T08:29:36;5.05;;;2.40;;
77304;SDS011;66364;52.622;7.746;2023-03-07T08:31:36;9.87;;;1.83;;
77304;SDS011;66364;52.622;7.746;2023-03-07T08:33:37;7.20;;;1.60;;
77304;SDS011;66364;52.622;7.746;2023-03-07T08:35:38;4.67;;;1.27;;
77304;SDS011;66364;52.622;7.746;2023-03-07T08:37:39;7.60;;;1.17;;
77304;SDS011;66364;52.622;7.746;2023-03-07T08:39:40;2.60;;;1.20;;
77304;SDS011;66364;52.622;7.746;2023-03-07T08:41:40;2.60;;;1.30;;
77304;SDS011;66364;52.622;7.746;2023-03-07T08:43:59;3.80;;;1.87;;
77304;SDS011;66364;52.622;7.746;2023-03-07T08:46:00;5.75;;;1.50;;
77304;SDS011;66364;52.622;7.746;2023-03-07T08:48:01;2.30;;;1.43;;
77304;SDS011;66364;52.622;7.746;2023-03-07T08:50:01;5.20;;;1.97;;
77304;SDS011;66364;52.622;7.746;2023-03-07T08:52:03;4.17;;;1.45;;
77304;SDS011;66364;52.622;7.746;2023-03-07T08:54:04;6.37;;;3.47;;
77304;SDS011;66364;52.622;7.746;2023-03-07T08:56:08;5.23;;;1.20;;
77304;SDS011;66364;52.622;7.746;2023-03-07T08:58:10;8.50;;;1.60;;
77304;SDS011;66364;52.622;7.746;2023-03-07T09:00:17;2.37;;;1.12;;
77304;SDS011;66364;52.622;7.746;2023-03-07T09:02:18;2.55;;;1.25;;
77304;SDS011;66364;52.622;7.746;2023-03-07T09:04:20;3.43;;;1.80;;
77304;SDS011;66364;52.622;7.746;2023-03-07T09:06:21;3.52;;;2.15;;
77304;SDS011;66364;52.622;7.746;2023-03-07T09:08:22;1.40;;;0.90;;
77304;SDS011;66364;52.622;7.746;2023-03-07T09:10:23;1.45;;;0.90;;
77304;SDS011;66364;52.622;7.746;2023-03-07T09:12:24;9.15;;;1.27;;
77304;SDS011;66364;52.622;7.746;2023-03-07T09:14:25;6.73;;;1.23;;
77304;SDS011;66364;52.622;7.746;2023-03-07T09:16:26;2.63;;;0.97;;
77304;SDS011;66364;52.622;7.746;2023-03-07T09:18:26;2.83;;;1.10;;
77304;SDS011;66364;52.622;7.746;2023-03-07T09:20:33;3.30;;;1.20;;
77304;SDS011;66364;52.622;7.746;2023-03-07T09:22:34;3.47;;;1.10;;
77304;SDS011;66364;52.622;7.746;2023-03-07T09:24:34;3.50;;;0.90;;
77304;SDS011;66364;52.622;7.746;2023-03-07T09:26:35;4.17;;;1.03;;
77304;SDS011;66364;52.622;7.746;2023-03-07T09:28:36;3.40;;;1.40;;
77304;SDS011;66364;52.622;7.746;2023-03-07T09:30:36;6.70;;;1.10;;
77304;SDS011;66364;52.622;7.746;2023-03-07T09:32:37;1.67;;;0.90;;
77304;SDS011;66364;52.622;7.746;2023-03-07T09:34:38;2.40;;;0.80;;
77304;SDS011;66364;52.622;7.746;2023-03-07T09:36:39;2.90;;;1.10;;
77304;SDS011;66364;52.622;7.746;2023-03-07T09:38:40;3.30;;;1.73;;
77304;SDS011;66364;52.622;7.746;2023-03-07T09:40:42;4.97;;;1.80;;
77304;SDS011;66364;52.622;7.746;2023-03-07T09:45:30;5.47;;;1.37;;
77304;SDS011;66364;52.622;7.746;2023-03-07T09:49:53;3.27;;;1.07;;
77304;SDS011;66364;52.622;7.746;2023-03-07T09:51:56;3.35;;;1.02;;
77304;SDS011;66364;52.622;7.746;2023-03-07T09:58:43;2.85;;;2.22;;
77304;SDS011;66364;52.622;7.746;2023-03-07T10:00:53;3.05;;;1.98;;
77304;SDS011;66364;52.622;7.746;2023-03-07T10:07:29;4.97;;;1.92;;
77304;SDS011;66364;52.622;7.746;2023-03-07T10:09:30;3.73;;;3.30;;
77304;SDS011;66364;52.622;7.746;2023-03-07T10:18:59;4.22;;;2.80;;
77304;SDS011;66364;52.622;7.746;2023-03-07T10:21:22;9.73;;;4.45;;
77304;SDS011;66364;52.622;7.746;2023-03-07T10:26:18;5.42;;;2.12;;
77304;SDS011;66364;52.622;7.746;2023-03-07T10:28:28;4.25;;;1.70;;
77304;SDS011;66364;52.622;7.746;2023-03-07T10:30:29;4.17;;;3.10;;
77304;SDS011;66364;52.622;7.746;2023-03-07T10:32:31;4.42;;;1.45;;
77304;SDS011;66364;52.622;7.746;2023-03-07T10:34:38;8.98;;;2.10;;
77304;SDS011;66364;52.622;7.746;2023-03-07T10:38:51;3.35;;;1.50;;
77304;SDS011;66364;52.622;7.746;2023-03-07T10:40:57;4.42;;;2.05;;
77304;SDS011;66364;52.622;7.746;2023-03-07T10:43:33;5.75;;;2.00;;
77304;SDS011;66364;52.622;7.746;2023-03-07T10:45:33;2.45;;;1.65;;
77304;SDS011;66364;52.622;7.746;2023-03-07T10:47:40;7.85;;;2.70;;
77304;SDS011;66364;52.622;7.746;2023-03-07T10:49:42;3.87;;;1.50;;
77304;SDS011;66364;52.622;7.746;2023-03-07T10:54:11;3.22;;;1.60;;
77304;SDS011;66364;52.622;7.746;2023-03-07T11:00:22;2.55;;;1.27;;
77304;SDS011;66364;52.622;7.746;2023-03-07T11:04:44;8.63;;;2.05;;
77304;SDS011;66364;52.622;7.746;2023-03-07T11:06:55;3.42;;;1.75;;
77304;SDS011;66364;52.622;7.746;2023-03-07T11:09:08;7.85;;;2.50;;
77304;SDS011;66364;52.622;7.746;2023-03-07T11:11:13;2.47;;;1.75;;
77304;SDS011;66364;52.622;7.746;2023-03-07T11:13:18;4.05;;;1.57;;
77304;SDS011;66364;52.622;7.746;2023-03-07T11:15:21;3.75;;;1.30;;
77304;SDS011;66364;52.622;7.746;2023-03-07T11:19:44;7.12;;;1.72;;
77304;SDS011;66364;52.622;7.746;2023-03-07T11:22:20;4.55;;;2.02;;
77304;SDS011;66364;52.622;7.746;2023-03-07T11:24:41;3.47;;;1.50;;
77304;SDS011;66364;52.622;7.746;2023-03-07T11:26:57;7.10;;;1.90;;
77304;SDS011;66364;52.622;7.746;2023-03-07T11:29:03;5.12;;;1.30;;
77304;SDS011;66364;52.622;7.746;2023-03-07T11:31:10;2.75;;;1.47;;
77304;SDS011;66364;52.622;7.746;2023-03-07T11:38:04;3.08;;;1.70;;
77304;SDS011;66364;52.622;7.746;2023-03-07T11:40:31;6.08;;;1.20;;
77304;SDS011;66364;52.622;7.746;2023-03-07T11:50:27;1.57;;;0.85;;
77304;SDS011;66364;52.622;7.746;2023-03-07T12:00:26;2.40;;;0.62;;
77304;SDS011;66364;52.622;7.746;2023-03-07T12:12:26;2.52;;;1.07;;
77304;SDS011;66364;52.622;7.746;2023-03-07T12:23:50;3.27;;;1.50;;
77304;SDS011;66364;52.622;7.746;2023-03-07T12:25:56;4.12;;;1.00;;
77304;SDS011;66364;52.622;7.746;2023-03-07T12:28:20;4.25;;;1.42;;
77304;SDS011;66364;52.622;7.746;2023-03-07T12:30:24;2.58;;;1.15;;
77304;SDS011;66364;52.622;7.746;2023-03-07T12:32:26;9.10;;;1.52;;
77304;SDS011;66364;52.622;7.746;2023-03-07T12:34:35;6.72;;;4.33;;
77304;SDS011;66364;52.622;7.746;2023-03-07T12:36:42;7.75;;;4.25;;
77304;SDS011;66364;52.622;7.746;2023-03-07T12:38:53;5.35;;;2.80;;
77304;SDS011;66364;52.622;7.746;2023-03-07T12:41:09;3.35;;;1.50;;
77304;SDS011;66364;52.622;7.746;2023-03-07T12:48:32;3.98;;;2.05;;
77304;SDS011;66364;52.622;7.746;2023-03-07T12:50:38;4.20;;;2.35;;
77304;SDS011;66364;52.622;7.746;2023-03-07T12:59:28;2.90;;;1.45;;
77304;SDS011;66364;52.622;7.746;2023-03-07T13:01:31;3.52;;;1.80;;
77304;SDS011;66364;52.622;7.746;2023-03-07T13:03:42;4.28;;;1.37;;
77304;SDS011;66364;52.622;7.746;2023-03-07T13:06:02;2.67;;;1.32;;
77304;SDS011;66364;52.622;7.746;2023-03-07T13:08:04;1.00;;;0.80;;
77304;SDS011;66364;52.622;7.746;2023-03-07T13:10:06;4.60;;;1.85;;
77304;SDS011;66364;52.622;7.746;2023-03-07T13:14:35;6.53;;;1.60;;
77304;SDS011;66364;52.622;7.746;2023-03-07T13:16:33;2.85;;;1.87;;
77304;SDS011;66364;52.622;7.746;2023-03-07T13:18:41;3.08;;;1.20;;
77304;SDS011;66364;52.622;7.746;2023-03-07T13:20:42;4.93;;;1.50;;
77304;SDS011;66364;52.622;7.746;2023-03-07T13:22:57;2.92;;;1.37;;
77304;SDS011;66364;52.622;7.746;2023-03-07T13:24:59;3.58;;;1.42;;
77304;SDS011;66364;52.622;7.746;2023-03-07T13:27:13;4.40;;;1.00;;
77304;SDS011;66364;52.622;7.746;2023-03-07T13:31:55;8.05;;;1.82;;
77304;SDS011;66364;52.622;7.746;2023-03-07T13:33:56;4.00;;;2.30;;
77304;SDS011;66364;52.622;7.746;2023-03-07T13:36:02;2.30;;;1.22;;
77304;SDS011;66364;52.622;7.746;2023-03-07T13:42:46;2.42;;;1.05;;
77304;SDS011;66364;52.622;7.746;2023-03-07T13:44:47;3.10;;;1.72;;
77304;SDS011;66364;52.622;7.746;2023-03-07T13:46:48;4.80;;;1.40;;
77304;SDS011;66364;52.622;7.746;2023-03-07T13:57:40;1.70;;;1.00;;
77304;SDS011;66364;52.622;7.746;2023-03-07T13:59:45;2.60;;;1.05;;
77304;SDS011;66364;52.622;7.746;2023-03-07T14:01:58;5.10;;;1.70;;
77304;SDS011;66364;52.622;7.746;2023-03-07T14:04:15;2.80;;;1.42;;
77304;SDS011;66364;52.622;7.746;2023-03-07T14:08:56;1.27;;;0.75;;
77304;SDS011;66364;52.622;7.746;2023-03-07T14:11:00;1.25;;;1.15;;
77304;SDS011;66364;52.622;7.746;2023-03-07T14:25:09;3.20;;;0.95;;
77304;SDS011;66364;52.622;7.746;2023-03-07T14:29:25;2.05;;;1.32;;
77304;SDS011;66364;52.622;7.746;2023-03-07T14:31:29;3.05;;;0.80;;
77304;SDS011;66364;52.622;7.746;2023-03-07T14:33:33;2.30;;;0.70;;
77304;SDS011;66364;52.622;7.746;2023-03-07T14:35:42;3.05;;;1.25;;
77304;SDS011;66364;52.622;7.746;2023-03-07T14:37:44;2.92;;;0.95;;
77304;SDS011;66364;52.622;7.746;2023-03-07T14:51:39;3.25;;;1.15;;
77304;SDS011;66364;52.622;7.746;2023-03-07T14:53:41;3.10;;;0.95;;
77304;SDS011;66364;52.622;7.746;2023-03-07T14:55:43;4.72;;;1.32;;
77304;SDS011;66364;52.622;7.746;2023-03-07T14:57:47;8.63;;;1.42;;
77304;SDS011;66364;52.622;7.746;2023-03-07T15:00:04;5.05;;;1.67;;
77304;SDS011;66364;52.622;7.746;2023-03-07T15:02:17;4.35;;;1.57;;
77304;SDS011;66364;52.622;7.746;2023-03-07T15:06:43;2.25;;;1.20;;
77304;SDS011;66364;52.622;7.746;2023-03-07T15:08:58;4.90;;;1.00;;
77304;SDS011;66364;52.622;7.746;2023-03-07T15:11:01;2.12;;;1.62;;
77304;SDS011;66364;52.622;7.746;2023-03-07T15:13:23;1.57;;;0.90;;
77304;SDS011;66364;52.622;7.746;2023-03-07T15:15:31;6.50;;;1.52;;
77304;SDS011;66364;52.622;7.746;2023-03-07T15:17:46;6.05;;;1.40;;
77304;SDS011;66364;52.622;7.746;2023-03-07T15:20:00;1.60;;;1.07;;